createdAt,value
2023-05-01T00:02:48.266Z,13.88
2023-05-01T00:06:30.780Z,10.98
2023-05-01T00:10:13.068Z,9.43
2023-05-01T00:13:55.200Z,20.67
2023-05-01T00:17:37.332Z,10.93
2023-05-01T00:21:19.555Z,10.68
2023-05-01T00:25:01.834Z,12.07
2023-05-01T00:28:43.982Z,11.68
2023-05-01T00:32:26.147Z,11.48
2023-05-01T00:36:09.324Z,11.52
2023-05-01T00:39:51.489Z,11.02
2023-05-01T00:43:33.840Z,11.70
2023-05-01T00:47:15.989Z,15.43
2023-05-01T00:51:01.930Z,14.50
2023-05-01T00:54:52.039Z,7.97
2023-05-01T00:58:35.832Z,13.43
2023-05-01T01:02:18.216Z,13.65
2023-05-01T01:06:15.674Z,9.38
2023-05-01T01:10:34.817Z,19.10
2023-05-01T01:14:21.686Z,11.95
2023-05-01T01:18:19.621Z,9.02
2023-05-01T01:22:08.239Z,13.98
2023-05-01T01:26:11.353Z,10.20
2023-05-01T01:30:08.378Z,10.98
2023-05-01T01:34:24.390Z,11.23
2023-05-01T01:38:17.496Z,9.60
2023-05-01T01:42:01.194Z,11.18
2023-05-01T01:45:47.477Z,10.48
2023-05-01T01:49:31.437Z,13.23
2023-05-01T01:53:17.396Z,12.75
2023-05-01T01:57:02.809Z,9.10
2023-05-01T02:00:45.615Z,11.77
2023-05-01T02:04:28.595Z,12.50
2023-05-01T02:08:13.113Z,14.65
2023-05-01T02:11:58.654Z,13.23
2023-05-01T02:15:41.580Z,14.00
2023-05-01T02:19:24.862Z,10.25
2023-05-01T02:23:07.880Z,12.43
2023-05-01T02:26:56.625Z,11.35
2023-05-01T02:30:39.177Z,13.45
2023-05-01T02:34:21.415Z,10.23
2023-05-01T02:38:03.299Z,10.57
2023-05-01T02:41:46.380Z,11.57
2023-05-01T02:45:30.845Z,14.60
2023-05-01T02:49:13.484Z,12.25
2023-05-01T02:52:55.768Z,7.97
2023-05-01T02:56:37.981Z,10.50
2023-05-01T03:00:20.795Z,9.68
2023-05-01T03:04:02.644Z,9.85
2023-05-01T03:07:44.621Z,9.20
2023-05-01T03:11:26.937Z,9.98
2023-05-01T03:15:09.355Z,11.05
2023-05-01T03:18:51.184Z,11.20
2023-05-01T03:22:33.269Z,7.13
2023-05-01T03:26:15.047Z,12.25
2023-05-01T03:29:57.522Z,5.22
2023-05-01T03:33:40.154Z,11.15
2023-05-01T03:37:21.865Z,10.88
2023-05-01T03:41:05.248Z,10.38
2023-05-01T03:44:46.954Z,6.57
2023-05-01T03:48:28.753Z,7.45
2023-05-01T03:52:14.631Z,6.47
2023-05-01T03:55:56.519Z,7.85
2023-05-01T03:59:38.982Z,6.85
2023-05-01T04:03:20.840Z,7.68
2023-05-01T04:07:02.965Z,12.13
2023-05-01T04:10:45.253Z,7.45
2023-05-01T04:14:27.120Z,11.80
2023-05-01T04:18:09.214Z,10.57
2023-05-01T04:21:51.034Z,13.30
2023-05-01T04:25:32.846Z,11.43
2023-05-01T04:29:14.597Z,11.05
2023-05-01T04:32:56.578Z,13.00
2023-05-01T04:36:38.338Z,11.55
2023-05-01T04:40:20.172Z,9.15
2023-05-01T04:44:01.930Z,9.38
2023-05-01T04:47:44.166Z,13.93
2023-05-01T04:51:25.961Z,10.10
2023-05-01T04:55:09.375Z,9.95
2023-05-01T04:58:51.449Z,8.70
2023-05-01T05:02:33.300Z,13.93
2023-05-01T05:06:15.227Z,10.93
2023-05-01T05:09:57.397Z,13.13
2023-05-01T05:13:39.383Z,14.60
2023-05-01T05:17:21.102Z,17.02
2023-05-01T05:21:06.871Z,14.52
2023-05-01T05:24:54.712Z,11.63
2023-05-01T05:28:36.476Z,12.00
2023-05-01T05:32:18.316Z,7.88
2023-05-01T05:36:00.404Z,13.93
2023-05-01T05:39:42.144Z,14.38
2023-05-01T05:43:25.992Z,9.65
2023-05-01T05:47:09.123Z,11.05
2023-05-01T05:50:52.511Z,13.63
2023-05-01T05:54:34.283Z,13.38
2023-05-01T05:58:23.224Z,11.15
2023-05-01T06:02:05.114Z,13.88
2023-05-01T06:05:47.186Z,12.95
2023-05-01T06:09:29.020Z,15.15
2023-05-01T06:13:13.450Z,14.35
2023-05-01T06:16:56.432Z,16.80
2023-05-01T06:20:38.829Z,14.38
2023-05-01T06:24:20.530Z,19.60
2023-05-01T06:28:02.565Z,16.55
2023-05-01T06:31:44.542Z,18.55
2023-05-01T06:35:26.318Z,17.98
2023-05-01T06:39:08.070Z,16.77
2023-05-01T06:42:49.822Z,16.48
2023-05-01T06:46:31.613Z,21.85
2023-05-01T06:50:14.369Z,16.42
2023-05-01T06:53:56.222Z,17.70
2023-05-01T06:57:38.168Z,13.82
2023-05-01T07:01:20.037Z,19.33
2023-05-01T07:05:02.405Z,15.45
2023-05-01T07:08:44.222Z,15.48
2023-05-01T07:12:25.932Z,15.23
2023-05-01T07:16:07.948Z,15.43
2023-05-01T07:19:50.222Z,16.05
2023-05-01T07:23:32.038Z,14.15
2023-05-01T07:27:13.884Z,19.27
2023-05-01T07:30:55.742Z,14.27
2023-05-01T07:34:37.619Z,16.17
2023-05-01T07:38:19.741Z,15.02
2023-05-01T07:42:01.683Z,14.30
2023-05-01T07:45:58.348Z,12.13
2023-05-01T07:49:40.156Z,12.75
2023-05-01T07:53:25.042Z,9.95
2023-05-01T07:57:06.911Z,7.97
2023-05-01T08:00:48.651Z,9.23
2023-05-01T08:04:31.160Z,9.35
2023-05-01T08:08:19.217Z,13.98
2023-05-01T08:15:49.340Z,12.02
2023-05-01T08:19:31.390Z,10.15
2023-05-01T08:23:13.257Z,8.68
2023-05-01T08:26:55.332Z,13.35
2023-05-01T08:30:37.124Z,10.38
2023-05-01T08:34:19.191Z,10.05
2023-05-01T08:38:01.712Z,12.95
2023-05-01T08:41:47.324Z,7.25
2023-05-01T08:45:35.939Z,6.88
2023-05-01T08:49:19.801Z,7.80
2023-05-01T08:53:03.501Z,7.93
2023-05-01T08:56:47.389Z,8.38
2023-05-01T09:00:29.990Z,6.38
2023-05-01T09:04:12.458Z,6.80
2023-05-01T09:07:56.271Z,4.80
2023-05-01T09:11:38.183Z,7.43
2023-05-01T09:15:20.182Z,4.45
2023-05-01T09:19:01.994Z,5.40
2023-05-01T09:22:43.788Z,5.90
2023-05-01T09:26:26.836Z,7.18
2023-05-01T09:30:09.517Z,5.85
2023-05-01T09:33:59.349Z,5.28
2023-05-01T09:37:41.827Z,5.00
2023-05-01T09:41:24.094Z,5.32
2023-05-01T09:45:15.245Z,6.47
2023-05-01T09:48:59.996Z,5.93
2023-05-01T09:52:52.426Z,8.52
2023-05-01T09:56:45.854Z,5.72
2023-05-01T10:00:27.965Z,4.38
2023-05-01T10:04:10.127Z,5.35
2023-05-01T10:08:02.305Z,7.47
2023-05-01T10:11:56.159Z,6.22
2023-05-01T10:15:37.941Z,9.07
2023-05-01T10:19:21.362Z,7.38
2023-05-01T10:23:03.600Z,5.35
2023-05-01T10:26:49.070Z,7.28
2023-05-01T10:30:31.446Z,6.15
2023-05-01T10:34:18.575Z,4.70
2023-05-01T10:38:02.766Z,5.50
2023-05-01T10:42:01.938Z,17.75
2023-05-01T10:45:45.097Z,4.47
2023-05-01T10:50:05.246Z,3.42
2023-05-01T10:54:13.059Z,3.33
2023-05-01T10:57:55.337Z,4.97
2023-05-01T11:01:39.845Z,4.10
2023-05-01T11:06:00.120Z,3.67
2023-05-01T11:09:59.173Z,3.47
2023-05-01T11:13:59.941Z,7.65
2023-05-01T11:17:41.920Z,5.72
2023-05-01T11:21:34.172Z,4.05
2023-05-01T11:25:34.128Z,6.93
2023-05-01T11:29:15.968Z,2.72
2023-05-01T11:32:57.877Z,2.33
2023-05-01T11:36:53.037Z,2.55
2023-05-01T11:40:35.411Z,3.95
2023-05-01T11:44:18.496Z,5.53
2023-05-01T11:48:03.465Z,2.30
2023-05-01T11:51:56.828Z,2.72
2023-05-01T11:55:38.834Z,5.35
2023-05-01T11:59:20.621Z,6.18
2023-05-01T12:03:10.315Z,12.20
2023-05-01T12:06:52.249Z,2.53
2023-05-01T12:10:35.756Z,2.45
2023-05-01T12:14:18.712Z,4.07
2023-05-01T12:18:01.259Z,2.03
2023-05-01T12:21:43.430Z,1.17
2023-05-01T12:25:31.965Z,1.23
2023-05-01T12:29:13.794Z,1.08
2023-05-01T12:32:57.364Z,2.70
2023-05-01T12:36:39.494Z,4.00
2023-05-01T12:40:22.897Z,1.65
2023-05-01T12:44:22.441Z,3.38
2023-05-01T12:48:13.729Z,5.40
2023-05-01T12:52:00.587Z,1.27
2023-05-01T12:55:50.445Z,1.70
2023-05-01T12:59:32.301Z,2.00
2023-05-01T13:03:17.342Z,2.25
2023-05-01T13:07:00.179Z,2.35
2023-05-01T13:10:42.294Z,2.03
2023-05-01T13:14:24.501Z,2.38
2023-05-01T13:18:06.402Z,25.08
2023-05-01T13:21:50.447Z,1.77
2023-05-01T13:25:32.765Z,6.13
2023-05-01T13:29:15.710Z,1.02
2023-05-01T13:32:57.538Z,2.95
2023-05-01T13:36:40.717Z,1.00
2023-05-01T13:40:26.108Z,2.42
2023-05-01T13:44:08.367Z,3.25
2023-05-01T13:47:51.912Z,1.55
2023-05-01T13:51:36.634Z,2.15
2023-05-01T13:55:18.889Z,3.55
2023-05-01T13:59:01.032Z,2.60
2023-05-01T14:02:48.548Z,4.00
2023-05-01T14:10:13.108Z,7.68
2023-05-01T14:13:58.806Z,3.65
2023-05-01T14:17:41.134Z,4.85
2023-05-01T14:21:29.990Z,1.77
2023-05-01T14:25:34.970Z,6.18
2023-05-01T14:29:23.959Z,1.60
2023-05-01T14:33:08.213Z,3.00
2023-05-01T14:36:50.638Z,2.65
2023-05-01T14:40:33.954Z,1.10
2023-05-01T14:44:18.742Z,2.35
2023-05-01T14:48:00.653Z,2.70
2023-05-01T14:51:42.601Z,2.53
2023-05-01T14:55:31.228Z,2.28
2023-05-01T14:59:13.515Z,3.05
2023-05-01T15:02:55.600Z,1.75
2023-05-01T15:06:37.480Z,4.22
2023-05-01T15:10:19.307Z,3.15
2023-05-01T15:14:01.105Z,1.85
2023-05-01T15:17:42.893Z,1.67
2023-05-01T15:21:24.684Z,2.75
2023-05-01T15:25:09.208Z,2.25
2023-05-01T15:28:51.256Z,1.83
2023-05-01T15:32:33.010Z,3.33
2023-05-01T15:36:15.106Z,2.42
2023-05-01T15:39:56.894Z,1.90
2023-05-01T15:43:38.897Z,1.48
2023-05-01T15:47:20.667Z,1.33
2023-05-01T15:51:02.450Z,1.17
2023-05-01T15:54:47.129Z,2.75
2023-05-01T15:58:28.868Z,1.85
2023-05-01T16:02:10.656Z,2.72
2023-05-01T16:05:52.578Z,1.92
2023-05-01T16:09:34.847Z,1.90
2023-05-01T16:13:16.898Z,1.77
2023-05-01T16:16:58.878Z,1.00
2023-05-01T16:20:43.054Z,2.38
2023-05-01T16:24:25.245Z,3.28
2023-05-01T16:28:07.663Z,2.63
2023-05-01T16:31:49.445Z,1.42
2023-05-01T16:35:31.801Z,1.10
2023-05-01T16:39:18.950Z,1.67
2023-05-01T16:43:02.466Z,1.88
2023-05-01T16:47:05.228Z,2.45
2023-05-01T16:50:47.193Z,1.77
2023-05-01T16:54:35.597Z,2.13
2023-05-01T16:58:17.486Z,1.40
2023-05-01T17:01:59.309Z,1.85
2023-05-01T17:05:41.177Z,1.52
2023-05-01T17:09:22.965Z,4.18
2023-05-01T17:13:05.975Z,4.05
2023-05-01T17:16:50.055Z,4.10
2023-05-01T17:20:32.262Z,1.67
2023-05-01T17:24:14.221Z,5.13
2023-05-01T17:27:56.068Z,2.70
2023-05-01T17:31:37.785Z,5.60
2023-05-01T17:35:19.584Z,4.05
2023-05-01T17:39:01.504Z,1.80
2023-05-01T17:42:44.419Z,2.78
2023-05-01T17:46:26.676Z,1.90
2023-05-01T17:50:13.130Z,3.50
2023-05-01T17:53:54.863Z,5.30
2023-05-01T17:57:37.189Z,3.35
2023-05-01T18:01:19.433Z,5.95
2023-05-01T18:05:01.801Z,4.60
2023-05-01T18:08:44.151Z,4.20
2023-05-01T18:12:25.870Z,3.22
2023-05-01T18:16:07.819Z,4.70
2023-05-01T18:19:50.013Z,3.25
2023-05-01T18:23:32.016Z,1.40
2023-05-01T18:27:14.449Z,2.63
2023-05-01T18:30:56.233Z,2.38
2023-05-01T18:34:38.014Z,3.97
2023-05-01T18:38:19.757Z,1.77
2023-05-01T18:42:03.490Z,1.95
2023-05-01T18:45:45.235Z,3.38
2023-05-01T18:49:26.947Z,2.13
2023-05-01T18:53:08.856Z,2.33
2023-05-01T18:56:50.759Z,3.08
2023-05-01T19:00:32.977Z,4.60
2023-05-01T19:04:14.828Z,3.97
2023-05-01T19:08:00.825Z,6.07
2023-05-01T19:11:42.612Z,1.38
2023-05-01T19:15:24.380Z,2.72
2023-05-01T19:19:06.429Z,2.85
2023-05-01T19:22:48.278Z,2.55
2023-05-01T19:26:30.661Z,3.75
2023-05-01T19:30:12.477Z,4.68
2023-05-01T19:33:55.139Z,4.32
2023-05-01T19:37:37.346Z,3.75
2023-05-01T19:41:19.186Z,2.83
2023-05-01T19:45:00.980Z,4.15
2023-05-01T19:48:42.771Z,3.78
2023-05-01T19:52:24.622Z,2.75
2023-05-01T19:56:06.818Z,3.95
2023-05-01T19:59:49.115Z,3.05
2023-05-01T20:03:31.057Z,5.65
2023-05-01T20:07:12.858Z,6.78
2023-05-01T20:10:56.913Z,4.93
2023-05-01T20:14:38.690Z,4.05
2023-05-01T20:18:20.779Z,8.55
2023-05-01T20:22:02.567Z,2.85
2023-05-01T20:25:46.374Z,4.32
2023-05-01T20:29:31.375Z,3.55
2023-05-01T20:33:14.019Z,3.33
2023-05-01T20:36:55.976Z,4.82
2023-05-01T20:40:40.762Z,3.65
2023-05-01T20:44:22.440Z,4.30
2023-05-01T20:48:04.506Z,3.25
2023-05-01T20:51:46.491Z,4.45
2023-05-01T20:55:28.476Z,5.53
2023-05-01T20:59:10.207Z,6.32
2023-05-01T21:02:52.867Z,3.95
2023-05-01T21:06:35.049Z,3.72
2023-05-01T21:10:16.894Z,4.95
2023-05-01T21:13:58.693Z,3.08
2023-05-01T21:17:41.258Z,4.00
2023-05-01T21:21:24.869Z,4.65
2023-05-01T21:25:08.811Z,6.00
2023-05-01T21:28:50.605Z,3.72
2023-05-01T21:32:41.725Z,3.33
2023-05-01T21:36:23.704Z,20.30
2023-05-01T21:40:06.488Z,19.58
2023-05-01T21:43:48.330Z,7.65
2023-05-01T21:47:37.036Z,18.67
2023-05-01T21:51:19.137Z,15.93
2023-05-01T21:55:06.458Z,9.15
2023-05-01T21:58:48.593Z,11.57
2023-05-01T22:02:40.408Z,11.48
2023-05-01T22:06:24.407Z,10.90
2023-05-01T22:10:11.790Z,4.85
2023-05-01T22:13:53.648Z,4.63
2023-05-01T22:17:36.446Z,8.35
2023-05-01T22:21:18.250Z,5.82
2023-05-01T22:25:00.023Z,4.80
2023-05-01T22:28:42.115Z,12.73
2023-05-01T22:32:23.936Z,7.95
2023-05-01T22:36:07.590Z,10.18
2023-05-01T22:39:49.553Z,11.25
2023-05-01T22:43:31.319Z,12.93
2023-05-01T22:47:13.028Z,8.73
2023-05-01T22:50:54.709Z,7.05
2023-05-01T22:54:36.468Z,6.18
2023-05-01T22:58:18.627Z,15.88
2023-05-01T23:02:03.324Z,9.30
2023-05-01T23:05:45.514Z,8.60
2023-05-01T23:09:29.842Z,5.75
2023-05-01T23:13:18.824Z,7.35
2023-05-01T23:17:01.208Z,12.30
2023-05-01T23:20:44.103Z,18.70
2023-05-01T23:24:28.132Z,7.25
2023-05-01T23:28:09.882Z,11.95
2023-05-01T23:31:51.775Z,6.13
2023-05-01T23:35:33.636Z,8.75
2023-05-01T23:39:16.340Z,19.40
2023-05-01T23:42:58.690Z,15.32
2023-05-01T23:46:40.780Z,16.85
2023-05-01T23:50:25.137Z,10.10
2023-05-01T23:54:07.301Z,7.72
2023-05-01T23:57:49.091Z,10.32
